Allerton, Iowa
Current Conditions -  °F | °C
As of 11:55 AM on Friday 28 Nov 2014 (Local Time) from KCNC Reporting Station
Clear Clear  
Wind Chill: 33°   Ceiling: Unl
Heat Index: 39°   Visibility: 10mi
Dew Point: 28°   Wind: 9mph
Humidity: 65%   Direction: 200°SSW
Pressure: 29.88"   Gusts: NA
Location:  40.71°N, 93.37°W
Report Text: KCNC 281755Z AUTO 20008KT 10SM CLR 04/M02 A2988 RMK AO2
Loading
Personal Weather Stations






























Interactive Weather Map New forecast layout! Learn more

10-Day Weather Forecast

Advertisements
Track Severe Weather on mobile